createdAt,value
2022-09-18T00:01:28.715Z,3.30
2022-09-18T00:04:15.008Z,3.67
2022-09-18T00:07:00.170Z,3.50
2022-09-18T00:09:46.001Z,3.38
2022-09-18T00:12:31.210Z,3.70
2022-09-18T00:15:16.779Z,3.42
2022-09-18T00:18:02.771Z,3.30
2022-09-18T00:20:48.258Z,2.90
2022-09-18T00:23:34.593Z,3.40
2022-09-18T00:26:19.721Z,3.92
2022-09-18T00:29:05.628Z,3.20
2022-09-18T00:31:51.421Z,3.25
2022-09-18T00:34:38.890Z,2.88
2022-09-18T00:37:24.210Z,3.15
2022-09-18T00:40:11.014Z,2.90
2022-09-18T00:42:56.488Z,2.50
2022-09-18T00:45:41.934Z,2.90
2022-09-18T00:48:40.758Z,2.60
2022-09-18T00:51:26.554Z,2.70
2022-09-18T00:54:21.883Z,2.45
2022-09-18T00:57:32.588Z,2.40
2022-09-18T01:00:20.894Z,2.45
2022-09-18T01:03:06.666Z,2.85
2022-09-18T01:06:10.742Z,2.80
2022-09-18T01:09:12.466Z,3.00
2022-09-18T01:12:10.540Z,3.95
2022-09-18T01:15:01.994Z,2.78
2022-09-18T01:18:10.547Z,2.55
2022-09-18T01:21:07.973Z,2.40
2022-09-18T01:24:21.055Z,2.78
2022-09-18T01:27:10.570Z,2.80
2022-09-18T01:30:04.188Z,2.75
2022-09-18T01:33:02.068Z,2.90
2022-09-18T01:35:52.871Z,2.50
2022-09-18T01:39:04.610Z,2.20
2022-09-18T01:41:52.037Z,1.90
2022-09-18T01:44:41.061Z,1.70
2022-09-18T01:47:34.056Z,2.13
2022-09-18T01:50:20.259Z,2.17
2022-09-18T01:53:21.026Z,2.50
2022-09-18T01:56:13.713Z,1.98
2022-09-18T01:59:04.559Z,1.90
2022-09-18T02:01:53.949Z,2.22
2022-09-18T02:04:49.578Z,2.10
2022-09-18T02:07:50.580Z,2.17
2022-09-18T02:10:43.166Z,1.80
2022-09-18T02:13:34.588Z,1.50
2022-09-18T02:16:32.355Z,1.70
2022-09-18T02:19:36.746Z,1.70
2022-09-18T02:22:24.553Z,1.75
2022-09-18T02:25:13.215Z,1.73
2022-09-18T02:27:59.092Z,1.63
2022-09-18T02:30:44.549Z,1.42
2022-09-18T02:33:32.450Z,2.03
2022-09-18T02:36:48.170Z,2.15
2022-09-18T02:40:06.728Z,1.80
2022-09-18T02:43:10.571Z,1.95
2022-09-18T02:46:34.219Z,1.83
2022-09-18T02:52:32.725Z,2.30
2022-09-18T02:58:22.959Z,2.67
2022-09-18T03:01:08.994Z,2.10
2022-09-18T03:03:54.779Z,1.60
2022-09-18T03:06:40.484Z,1.92
2022-09-18T03:09:26.454Z,1.65
2022-09-18T03:12:13.156Z,1.65
2022-09-18T03:14:58.369Z,2.45
2022-09-18T03:17:44.017Z,2.00
2022-09-18T03:20:29.447Z,1.85
2022-09-18T03:23:15.039Z,2.15
2022-09-18T03:26:00.494Z,2.35
2022-09-18T03:28:45.903Z,2.05
2022-09-18T03:31:31.656Z,1.70
2022-09-18T03:34:16.917Z,1.58
2022-09-18T03:37:02.404Z,2.35
2022-09-18T03:39:48.307Z,2.22
2022-09-18T03:42:34.010Z,1.40
2022-09-18T03:45:19.534Z,1.80
2022-09-18T03:48:05.183Z,1.98
2022-09-18T03:50:50.936Z,1.70
2022-09-18T03:53:36.522Z,1.98
2022-09-18T03:56:21.868Z,1.90
2022-09-18T03:59:07.450Z,1.95
2022-09-18T04:01:52.958Z,2.30
2022-09-18T04:04:38.423Z,2.00
2022-09-18T04:07:23.941Z,2.15
2022-09-18T04:10:09.551Z,2.00
2022-09-18T04:12:55.074Z,2.13
2022-09-18T04:15:40.550Z,2.30
2022-09-18T04:18:25.897Z,1.92
2022-09-18T04:21:11.411Z,1.90
2022-09-18T04:23:59.797Z,1.60
2022-09-18T04:26:45.019Z,2.28
2022-09-18T04:29:30.527Z,1.67
2022-09-18T04:32:16.065Z,2.47
2022-09-18T04:35:01.470Z,2.58
2022-09-18T04:37:46.922Z,1.95
2022-09-18T04:40:32.524Z,2.00
2022-09-18T04:43:19.185Z,1.90
2022-09-18T04:46:04.693Z,1.75
2022-09-18T04:48:50.406Z,1.50
2022-09-18T04:51:36.244Z,1.67
2022-09-18T04:54:21.657Z,2.58
2022-09-18T04:57:07.129Z,2.10
2022-09-18T04:59:53.130Z,1.90
2022-09-18T05:02:39.106Z,2.10
2022-09-18T05:05:24.943Z,1.40
2022-09-18T05:08:10.456Z,1.60
2022-09-18T05:10:55.922Z,2.13
2022-09-18T05:13:41.447Z,2.17
2022-09-18T05:16:27.418Z,1.90
2022-09-18T05:19:13.208Z,2.05
2022-09-18T05:21:58.875Z,2.00
2022-09-18T05:24:44.366Z,2.47
2022-09-18T05:27:29.925Z,1.60
2022-09-18T05:30:15.596Z,2.15
2022-09-18T05:33:11.146Z,2.20
2022-09-18T05:35:57.654Z,2.50
2022-09-18T05:38:42.923Z,1.92
2022-09-18T05:41:28.557Z,1.63
2022-09-18T05:44:14.068Z,2.33
2022-09-18T05:46:59.475Z,1.63
2022-09-18T05:49:44.574Z,1.50
2022-09-18T05:52:30.189Z,1.92
2022-09-18T05:55:15.600Z,2.28
2022-09-18T05:58:03.355Z,1.83
2022-09-18T06:00:51.176Z,1.90
2022-09-18T06:03:36.306Z,1.83
2022-09-18T06:06:21.847Z,1.88
2022-09-18T06:09:07.220Z,1.88
2022-09-18T06:11:52.636Z,1.88
2022-09-18T06:14:38.014Z,2.28
2022-09-18T06:17:23.570Z,1.90
2022-09-18T06:20:09.967Z,2.10
2022-09-18T06:23:00.545Z,2.47
2022-09-18T06:25:45.843Z,2.05
2022-09-18T06:28:32.451Z,1.67
2022-09-18T06:31:17.832Z,1.50
2022-09-18T06:34:03.327Z,1.63
2022-09-18T06:36:48.694Z,1.67
2022-09-18T06:39:34.316Z,1.77
2022-09-18T06:42:19.812Z,1.60
2022-09-18T06:45:06.060Z,1.40
2022-09-18T06:47:55.258Z,1.38
2022-09-18T06:50:40.514Z,1.98
2022-09-18T06:53:26.991Z,1.92
2022-09-18T06:56:12.612Z,2.42
2022-09-18T06:58:57.992Z,1.67
2022-09-18T07:01:43.377Z,1.70
2022-09-18T07:04:29.029Z,1.20
2022-09-18T07:07:14.590Z,2.08
2022-09-18T07:10:00.164Z,1.55
2022-09-18T07:12:48.727Z,3.05
2022-09-18T07:15:34.128Z,1.52
2022-09-18T07:18:19.710Z,1.80
2022-09-18T07:21:05.686Z,1.45
2022-09-18T07:23:51.023Z,1.40
2022-09-18T07:26:36.474Z,1.88
2022-09-18T07:29:22.026Z,1.70
2022-09-18T07:32:07.588Z,1.45
2022-09-18T07:34:53.121Z,1.33
2022-09-18T07:37:39.078Z,1.30
2022-09-18T07:40:24.554Z,1.35
2022-09-18T07:43:10.970Z,2.63
2022-09-18T07:45:56.541Z,1.33
2022-09-18T07:48:41.975Z,1.50
2022-09-18T07:51:27.710Z,1.27
2022-09-18T07:54:13.201Z,1.30
2022-09-18T07:56:58.666Z,1.25
2022-09-18T07:59:44.187Z,1.55
2022-09-18T08:02:29.858Z,1.65
2022-09-18T08:05:15.421Z,1.90
2022-09-18T08:08:06.101Z,1.63
2022-09-18T08:10:51.667Z,1.35
2022-09-18T08:13:37.216Z,1.40
2022-09-18T08:16:22.823Z,1.25
2022-09-18T08:19:08.529Z,1.30
2022-09-18T08:21:54.207Z,1.58
2022-09-18T08:24:39.686Z,1.75
2022-09-18T08:27:25.262Z,1.45
2022-09-18T08:30:13.822Z,1.30
2022-09-18T08:33:04.929Z,1.15
2022-09-18T08:35:50.225Z,1.17
2022-09-18T08:38:36.768Z,1.40
2022-09-18T08:41:31.250Z,1.10
2022-09-18T08:44:24.165Z,1.33
2022-09-18T08:47:17.406Z,1.25
2022-09-18T08:50:25.065Z,1.40
2022-09-18T08:53:34.261Z,1.00
2022-09-18T08:56:23.804Z,1.23
2022-09-18T08:59:18.054Z,1.83
2022-09-18T09:02:16.549Z,1.08
2022-09-18T09:05:06.893Z,1.00
2022-09-18T09:08:34.047Z,1.08
2022-09-18T09:11:28.064Z,1.27
2022-09-18T09:14:56.014Z,1.13
2022-09-18T09:18:05.513Z,1.10
2022-09-18T09:20:53.903Z,1.10
2022-09-18T09:24:21.284Z,0.82
2022-09-18T09:27:22.935Z,1.30
2022-09-18T09:30:20.213Z,0.82
2022-09-18T09:33:17.995Z,0.90
2022-09-18T09:36:10.834Z,1.02
2022-09-18T09:39:18.151Z,1.23
2022-09-18T09:42:21.764Z,0.68
2022-09-18T09:45:29.171Z,0.90
2022-09-18T09:48:27.864Z,1.00
2022-09-18T09:51:22.557Z,0.82
2022-09-18T09:54:11.758Z,2.55
2022-09-18T09:57:21.277Z,0.95
2022-09-18T10:00:14.627Z,1.20
2022-09-18T10:03:18.440Z,0.90
2022-09-18T10:06:35.641Z,0.68
2022-09-18T10:09:46.241Z,0.88
2022-09-18T10:13:03.355Z,1.00
2022-09-18T10:15:53.761Z,0.68
2022-09-18T10:18:45.796Z,0.90
2022-09-18T10:21:38.550Z,1.08
2022-09-18T10:24:42.280Z,0.73
2022-09-18T10:27:27.590Z,1.08
2022-09-18T10:30:14.301Z,1.10
2022-09-18T10:33:00.055Z,0.95
2022-09-18T10:35:46.093Z,0.80
2022-09-18T10:38:34.161Z,0.77
2022-09-18T10:41:34.847Z,1.00
2022-09-18T10:44:21.229Z,0.60
2022-09-18T10:47:10.729Z,0.60
2022-09-18T10:50:06.312Z,0.70
2022-09-18T10:52:54.151Z,0.70
2022-09-18T10:55:52.722Z,0.60
2022-09-18T10:58:41.347Z,0.55
2022-09-18T11:01:26.962Z,0.77
2022-09-18T11:04:16.986Z,0.70
2022-09-18T11:07:07.390Z,1.00
2022-09-18T11:09:53.011Z,0.55
2022-09-18T11:13:04.569Z,1.05
2022-09-18T11:16:03.095Z,0.52
2022-09-18T11:19:07.325Z,0.73
2022-09-18T11:21:56.137Z,0.93
2022-09-18T11:24:46.626Z,0.52
2022-09-18T11:27:48.919Z,0.68
2022-09-18T11:30:38.510Z,0.80
2022-09-18T11:33:31.057Z,0.50
2022-09-18T11:36:24.201Z,0.60
2022-09-18T11:39:15.792Z,0.40
2022-09-18T11:42:01.697Z,0.55
2022-09-18T11:44:47.763Z,0.68
2022-09-18T11:47:39.494Z,0.70
2022-09-18T11:50:30.318Z,0.70
2022-09-18T11:53:20.751Z,1.00
2022-09-18T11:56:08.685Z,0.90
2022-09-18T11:59:01.538Z,0.50
2022-09-18T12:01:51.461Z,0.50
2022-09-18T12:05:00.924Z,0.68
2022-09-18T12:08:08.560Z,0.90
2022-09-18T12:11:25.928Z,0.65
2022-09-18T12:14:26.624Z,0.60
2022-09-18T12:17:24.036Z,0.47
2022-09-18T12:20:31.375Z,0.35
2022-09-18T12:23:24.682Z,0.57
2022-09-18T12:26:39.434Z,0.73
2022-09-18T12:29:31.231Z,0.50
2022-09-18T12:32:19.330Z,0.45
2022-09-18T12:35:19.794Z,0.80
2022-09-18T12:38:07.893Z,0.80
2022-09-18T12:41:17.800Z,0.73
2022-09-18T12:44:28.542Z,0.55
2022-09-18T12:47:14.208Z,0.57
2022-09-18T12:50:19.978Z,0.73
2022-09-18T12:53:27.150Z,0.73
2022-09-18T12:56:34.067Z,0.60
2022-09-18T12:59:52.360Z,0.77
2022-09-18T13:02:40.721Z,1.20
2022-09-18T13:05:47.321Z,0.85
2022-09-18T13:09:00.163Z,0.73
2022-09-18T13:11:59.139Z,0.95
2022-09-18T13:14:56.275Z,0.90
2022-09-18T13:17:57.182Z,0.70
2022-09-18T13:20:45.426Z,0.88
2022-09-18T13:23:37.095Z,0.65
2022-09-18T13:26:25.328Z,0.80
2022-09-18T13:29:49.193Z,0.73
2022-09-18T13:32:37.600Z,1.10
2022-09-18T13:35:32.805Z,0.88
2022-09-18T13:38:22.246Z,0.82
2022-09-18T13:41:10.378Z,1.20
2022-09-18T13:43:58.586Z,0.70
2022-09-18T13:46:44.964Z,0.95
2022-09-18T13:49:33.092Z,0.85
2022-09-18T13:52:31.691Z,0.73
2022-09-18T13:55:20.104Z,0.75
2022-09-18T13:58:36.924Z,0.70
2022-09-18T14:01:41.308Z,0.80
2022-09-18T14:04:48.430Z,0.98
2022-09-18T14:07:33.732Z,0.70
2022-09-18T14:10:29.910Z,1.30
2022-09-18T14:13:18.250Z,0.50
2022-09-18T14:16:12.501Z,0.57
2022-09-18T14:19:06.201Z,0.93
2022-09-18T14:21:52.017Z,0.60
2022-09-18T14:24:49.509Z,0.40
2022-09-18T14:27:57.089Z,0.68
2022-09-18T14:30:42.525Z,0.63
2022-09-18T14:33:31.808Z,0.60
2022-09-18T14:36:17.148Z,0.82
2022-09-18T14:39:02.613Z,0.88
2022-09-18T14:41:48.607Z,0.73
2022-09-18T14:44:34.358Z,0.50
2022-09-18T14:47:26.133Z,0.60
2022-09-18T14:50:37.314Z,0.70
2022-09-18T14:53:25.936Z,0.55
2022-09-18T14:56:18.495Z,0.70
2022-09-18T14:59:07.270Z,1.00
2022-09-18T15:01:52.732Z,0.60
2022-09-18T15:04:38.669Z,0.77
2022-09-18T15:07:24.592Z,0.77
2022-09-18T15:10:10.518Z,0.88
2022-09-18T15:12:58.130Z,0.70
2022-09-18T15:15:45.529Z,0.60
2022-09-18T15:18:40.735Z,0.60
2022-09-18T15:21:33.528Z,0.65
2022-09-18T15:27:05.688Z,0.70
2022-09-18T15:30:05.016Z,0.80
2022-09-18T15:32:53.835Z,1.00
2022-09-18T15:35:39.611Z,0.80
2022-09-18T15:38:38.868Z,0.70
2022-09-18T15:41:35.901Z,0.50
2022-09-18T15:44:39.293Z,0.80
2022-09-18T15:47:34.848Z,1.85
2022-09-18T15:50:19.886Z,0.50
2022-09-18T15:53:27.681Z,0.82
2022-09-18T15:56:21.183Z,0.65
2022-09-18T15:59:34.778Z,0.75
2022-09-18T16:02:29.174Z,0.90
2022-09-18T16:05:18.123Z,0.80
2022-09-18T16:08:07.923Z,0.68
2022-09-18T16:10:53.981Z,1.15
2022-09-18T16:13:39.604Z,1.17
2022-09-18T16:16:25.778Z,1.20
2022-09-18T16:19:13.169Z,0.70
2022-09-18T16:22:08.021Z,0.85
2022-09-18T16:24:56.523Z,0.90
2022-09-18T16:27:46.832Z,0.85
2022-09-18T16:30:33.614Z,0.63
2022-09-18T16:33:21.947Z,0.98
2022-09-18T16:36:15.170Z,0.85
2022-09-18T16:41:48.649Z,0.73
2022-09-18T16:44:33.917Z,1.05
2022-09-18T16:47:19.628Z,1.10
2022-09-18T16:50:05.776Z,0.80
2022-09-18T16:52:53.254Z,0.90
2022-09-18T16:55:42.627Z,1.13
2022-09-18T16:58:29.023Z,1.00
2022-09-18T17:01:15.702Z,1.00
2022-09-18T17:04:01.387Z,1.10
2022-09-18T17:06:46.732Z,0.77
2022-09-18T17:09:32.904Z,0.98
2022-09-18T17:12:18.690Z,0.98
2022-09-18T17:15:05.562Z,0.93
2022-09-18T17:17:52.238Z,1.00
2022-09-18T17:20:37.986Z,1.27
2022-09-18T17:23:23.428Z,1.20
2022-09-18T17:26:11.822Z,1.17
2022-09-18T17:29:00.034Z,1.10
2022-09-18T17:31:46.002Z,0.98
2022-09-18T17:34:32.297Z,1.02
2022-09-18T17:37:17.581Z,1.20
2022-09-18T17:40:03.274Z,0.85
2022-09-18T17:42:48.892Z,1.20
2022-09-18T17:45:34.569Z,0.93
2022-09-18T17:48:20.186Z,1.20
2022-09-18T17:51:16.702Z,1.35
2022-09-18T17:54:04.780Z,0.85
2022-09-18T17:56:50.732Z,1.60
2022-09-18T17:59:40.917Z,0.77
2022-09-18T18:02:26.440Z,1.00
2022-09-18T18:05:12.407Z,1.20
2022-09-18T18:07:58.173Z,1.38
2022-09-18T18:10:44.062Z,1.20
2022-09-18T18:13:29.901Z,1.35
2022-09-18T18:16:23.836Z,1.83
2022-09-18T18:19:12.710Z,1.30
2022-09-18T18:21:58.061Z,1.50
2022-09-18T18:24:43.705Z,1.75
2022-09-18T18:27:29.223Z,1.40
2022-09-18T18:30:16.324Z,1.65
2022-09-18T18:33:02.814Z,1.30
2022-09-18T18:35:47.999Z,1.40
2022-09-18T18:38:33.686Z,1.20
2022-09-18T18:41:20.410Z,1.27
2022-09-18T18:44:07.089Z,1.48
2022-09-18T18:46:55.616Z,1.58
2022-09-18T18:49:41.063Z,1.25
2022-09-18T18:52:26.947Z,1.23
2022-09-18T18:55:12.757Z,1.08
2022-09-18T18:57:58.269Z,1.33
2022-09-18T19:00:44.083Z,1.17
2022-09-18T19:03:29.731Z,1.60
2022-09-18T19:06:15.854Z,1.50
2022-09-18T19:09:07.194Z,1.75
2022-09-18T19:11:59.299Z,1.45
2022-09-18T19:17:33.451Z,1.80
2022-09-18T19:20:20.223Z,1.75
2022-09-18T19:23:13.182Z,2.08
2022-09-18T19:26:00.281Z,2.13
2022-09-18T19:28:50.157Z,1.98
2022-09-18T19:31:39.435Z,2.25
2022-09-18T19:34:25.251Z,2.25
2022-09-18T19:37:12.502Z,2.30
2022-09-18T19:39:59.798Z,2.10
2022-09-18T19:43:00.077Z,2.10
2022-09-18T19:45:48.489Z,2.10
2022-09-18T19:48:35.103Z,2.33
2022-09-18T19:51:21.340Z,3.33
2022-09-18T19:54:10.056Z,2.15
2022-09-18T19:56:57.131Z,2.50
2022-09-18T19:59:51.468Z,2.30
2022-09-18T20:02:37.281Z,2.70
2022-09-18T20:05:22.818Z,2.53
2022-09-18T20:08:09.948Z,2.10
2022-09-18T20:10:55.924Z,2.60
2022-09-18T20:13:41.422Z,2.92
2022-09-18T20:16:27.451Z,2.25
2022-09-18T20:19:13.409Z,2.38
2022-09-18T20:22:02.947Z,2.47
2022-09-18T20:24:48.691Z,2.88
2022-09-18T20:27:39.984Z,2.95
2022-09-18T20:30:26.236Z,2.78
2022-09-18T20:33:12.835Z,2.90
2022-09-18T20:35:59.093Z,2.72
2022-09-18T20:38:45.596Z,2.83
2022-09-18T20:41:31.325Z,2.88
2022-09-18T20:44:17.607Z,2.30
2022-09-18T20:47:03.848Z,2.85
2022-09-18T20:49:50.601Z,2.55
2022-09-18T20:52:39.235Z,2.33
2022-09-18T20:55:24.912Z,2.75
2022-09-18T20:58:11.357Z,2.00
2022-09-18T21:00:57.113Z,1.98
2022-09-18T21:03:44.603Z,1.98
2022-09-18T21:06:33.309Z,2.03
2022-09-18T21:09:18.906Z,3.05
2022-09-18T21:12:04.538Z,2.47
2022-09-18T21:14:49.792Z,2.45
2022-09-18T21:17:37.498Z,2.33
2022-09-18T21:20:22.664Z,2.17
2022-09-18T21:23:28.090Z,2.33
2022-09-18T21:26:17.510Z,2.83
2022-09-18T21:29:11.986Z,2.90
2022-09-18T21:31:59.292Z,2.75
2022-09-18T21:34:46.166Z,2.53
2022-09-18T21:37:32.698Z,1.58
2022-09-18T21:40:18.433Z,2.30
2022-09-18T21:43:04.821Z,2.50
2022-09-18T21:45:50.323Z,3.80
2022-09-18T21:48:35.990Z,3.63
2022-09-18T21:51:21.994Z,2.55
2022-09-18T21:54:15.250Z,3.22
2022-09-18T21:57:01.389Z,3.70
2022-09-18T21:59:48.622Z,2.97
2022-09-18T22:02:33.797Z,3.20
2022-09-18T22:05:19.392Z,3.65
2022-09-18T22:08:04.985Z,3.30
2022-09-18T22:10:50.540Z,3.88
2022-09-18T22:13:36.145Z,3.83
2022-09-18T22:16:31.378Z,3.45
2022-09-18T22:19:17.798Z,3.63
2022-09-18T22:22:03.174Z,4.10
2022-09-18T22:24:48.801Z,3.25
2022-09-18T22:27:33.900Z,3.63
2022-09-18T22:30:20.348Z,3.65
2022-09-18T22:33:06.179Z,3.70
2022-09-18T22:35:51.493Z,3.15
2022-09-18T22:38:36.975Z,4.20
2022-09-18T22:41:22.982Z,4.07
2022-09-18T22:44:09.151Z,3.90
2022-09-18T22:46:54.957Z,4.68
2022-09-18T22:49:40.583Z,4.85
2022-09-18T22:52:26.186Z,3.70
2022-09-18T22:55:11.368Z,2.80
2022-09-18T22:57:56.994Z,1.85
2022-09-18T23:00:42.349Z,2.20
2022-09-18T23:03:27.916Z,2.85
2022-09-18T23:06:14.450Z,3.10
2022-09-18T23:09:01.006Z,3.55
2022-09-18T23:11:48.148Z,4.10
2022-09-18T23:14:33.713Z,4.88
2022-09-18T23:17:18.980Z,4.72
2022-09-18T23:20:04.724Z,4.15
2022-09-18T23:22:50.477Z,3.90
2022-09-18T23:25:36.535Z,3.83
2022-09-18T23:28:22.384Z,3.40
2022-09-18T23:31:20.156Z,3.70
2022-09-18T23:34:14.812Z,3.67
2022-09-18T23:37:09.687Z,4.13
2022-09-18T23:39:59.440Z,3.47
2022-09-18T23:42:47.721Z,3.33
2022-09-18T23:45:34.699Z,3.50
2022-09-18T23:48:20.081Z,3.90
2022-09-18T23:51:11.163Z,4.15
2022-09-18T23:53:59.911Z,3.50
2022-09-18T23:56:46.298Z,4.32
2022-09-18T23:59:31.596Z,4.85
